createdAt,value
2022-11-11T00:00:24.535Z,26.07
2022-11-11T00:00:54.650Z,26.06
2022-11-11T00:01:24.764Z,26.03
2022-11-11T00:01:54.873Z,26.06
2022-11-11T00:02:25.167Z,26.06
2022-11-11T00:02:55.074Z,26.07
2022-11-11T00:03:25.494Z,26.06
2022-11-11T00:03:55.111Z,26.06
2022-11-11T00:04:25.218Z,26.07
2022-11-11T00:04:55.210Z,26.06
2022-11-11T00:05:25.318Z,26.07
2022-11-11T00:05:55.432Z,26.10
2022-11-11T00:06:25.541Z,26.07
2022-11-11T00:06:55.697Z,26.06
2022-11-11T00:07:25.672Z,26.05
2022-11-11T00:07:55.777Z,26.06
2022-11-11T00:08:25.893Z,26.09
2022-11-11T00:08:56.010Z,26.06
2022-11-11T00:09:26.122Z,26.06
2022-11-11T00:09:56.238Z,26.09
2022-11-11T00:10:26.350Z,26.06
2022-11-11T00:10:56.461Z,26.06
2022-11-11T00:11:26.572Z,26.07
2022-11-11T00:11:56.682Z,26.05
2022-11-11T00:12:27.624Z,26.06
2022-11-11T00:12:56.909Z,26.06
2022-11-11T00:13:27.169Z,26.05
2022-11-11T00:13:57.024Z,26.07
2022-11-11T00:14:27.138Z,26.05
2022-11-11T00:14:57.256Z,26.07
2022-11-11T00:15:27.366Z,26.07
2022-11-11T00:15:57.478Z,26.06
2022-11-11T00:16:27.592Z,26.06
2022-11-11T00:16:57.705Z,26.03
2022-11-11T00:17:27.928Z,26.05
2022-11-11T00:17:57.927Z,26.03
2022-11-11T00:18:28.017Z,26.05
2022-11-11T00:18:57.991Z,26.03
2022-11-11T00:19:28.118Z,26.03
2022-11-11T00:19:58.223Z,26.03
2022-11-11T00:20:30.276Z,26.05
2022-11-11T00:20:58.353Z,26.05
2022-11-11T00:21:28.481Z,26.03
2022-11-11T00:21:58.516Z,26.03
2022-11-11T00:22:28.592Z,26.03
2022-11-11T00:22:58.746Z,26.03
2022-11-11T00:23:28.819Z,26.03
2022-11-11T00:23:58.869Z,26.03
2022-11-11T00:24:28.946Z,26.02
2022-11-11T00:24:59.029Z,26.03
2022-11-11T00:25:29.125Z,26.02
2022-11-11T00:26:24.572Z,26.03
2022-11-11T00:26:44.045Z,26.02
2022-11-11T00:26:59.409Z,26.02
2022-11-11T00:27:29.400Z,26.02
2022-11-11T00:27:59.505Z,26.02
2022-11-11T00:28:29.624Z,26.02
2022-11-11T00:28:59.672Z,26.02
2022-11-11T00:29:29.758Z,26.03
2022-11-11T00:29:59.821Z,26.02
2022-11-11T00:30:29.910Z,25.97
2022-11-11T00:30:59.984Z,26.02
2022-11-11T00:31:30.084Z,26.02
2022-11-11T00:32:00.217Z,26.03
2022-11-11T00:32:30.200Z,26.03
2022-11-11T00:33:00.453Z,26.00
2022-11-11T00:33:30.334Z,26.02
2022-11-11T00:34:00.503Z,26.00
2022-11-11T00:34:30.564Z,26.02
2022-11-11T00:35:00.592Z,26.00
2022-11-11T00:35:30.614Z,25.99
2022-11-11T00:36:00.631Z,26.00
2022-11-11T00:36:30.607Z,26.03
2022-11-11T00:37:00.730Z,26.00
2022-11-11T00:37:30.845Z,26.00
2022-11-11T00:38:00.906Z,26.03
2022-11-11T00:38:31.041Z,25.99
2022-11-11T00:39:01.032Z,25.97
2022-11-11T00:39:31.004Z,25.99
2022-11-11T00:40:01.138Z,26.00
2022-11-11T00:40:31.262Z,25.99
2022-11-11T00:41:01.223Z,26.02
2022-11-11T00:41:31.256Z,26.00
2022-11-11T00:42:01.262Z,26.02
2022-11-11T00:42:31.223Z,26.00
2022-11-11T00:43:01.219Z,26.00
2022-11-11T00:43:31.340Z,26.03
2022-11-11T00:44:01.441Z,26.00
2022-11-11T00:44:31.625Z,26.00
2022-11-11T00:45:01.602Z,26.00
2022-11-11T00:45:31.783Z,25.99
2022-11-11T00:46:01.781Z,25.99
2022-11-11T00:46:31.737Z,26.00
2022-11-11T00:47:01.883Z,25.99
2022-11-11T00:47:31.926Z,25.99
2022-11-11T00:48:02.024Z,26.00
2022-11-11T00:48:31.996Z,26.00
2022-11-11T00:49:02.178Z,26.00
2022-11-11T00:49:32.149Z,25.99
2022-11-11T00:50:02.229Z,25.99
2022-11-11T00:50:32.195Z,25.99
2022-11-11T00:51:02.303Z,25.99
2022-11-11T00:51:32.409Z,26.00
2022-11-11T00:52:02.551Z,26.00
2022-11-11T00:52:32.691Z,26.00
2022-11-11T00:53:02.767Z,25.99
2022-11-11T00:53:32.900Z,25.99
2022-11-11T00:54:02.926Z,25.99
2022-11-11T00:54:32.956Z,25.97
2022-11-11T00:55:03.032Z,25.96
2022-11-11T00:55:33.019Z,25.99
2022-11-11T00:56:03.172Z,25.97
2022-11-11T00:56:33.245Z,25.97
2022-11-11T00:57:03.199Z,25.97
2022-11-11T00:57:33.385Z,25.99
2022-11-11T00:58:03.360Z,25.99
2022-11-11T00:58:33.329Z,25.97
2022-11-11T00:59:03.466Z,26.00
2022-11-11T00:59:33.847Z,25.97
2022-11-11T01:00:03.598Z,25.97
2022-11-11T01:00:33.694Z,25.99
2022-11-11T01:01:03.843Z,25.97
2022-11-11T01:01:33.921Z,25.99
2022-11-11T01:02:04.036Z,26.00
2022-11-11T01:02:34.082Z,25.97
2022-11-11T01:03:04.155Z,26.00
2022-11-11T01:03:34.106Z,25.97
2022-11-11T01:04:04.289Z,25.99
2022-11-11T01:04:34.325Z,25.99
2022-11-11T01:05:04.279Z,25.99
2022-11-11T01:05:34.390Z,25.99
2022-11-11T01:06:04.521Z,25.96
2022-11-11T01:06:34.750Z,25.95
2022-11-11T01:07:04.964Z,25.97
2022-11-11T01:07:34.780Z,25.97
2022-11-11T01:08:04.824Z,25.97
2022-11-11T01:08:35.012Z,25.95
2022-11-11T01:09:05.058Z,25.97
2022-11-11T01:09:35.017Z,25.96
2022-11-11T01:10:05.181Z,25.96
2022-11-11T01:10:35.156Z,25.95
2022-11-11T01:11:05.253Z,25.96
2022-11-11T01:11:35.434Z,25.96
2022-11-11T01:12:05.421Z,25.97
2022-11-11T01:12:35.437Z,25.96
2022-11-11T01:13:05.560Z,25.97
2022-11-11T01:13:35.679Z,25.95
2022-11-11T01:14:05.860Z,25.96
2022-11-11T01:14:35.820Z,25.95
2022-11-11T01:15:05.845Z,25.99
2022-11-11T01:15:35.805Z,25.96
2022-11-11T01:16:06.041Z,25.96
2022-11-11T01:16:36.015Z,25.96
2022-11-11T01:17:06.251Z,25.96
2022-11-11T01:17:36.259Z,25.96
2022-11-11T01:18:06.394Z,25.97
2022-11-11T01:18:36.530Z,25.97
2022-11-11T01:19:06.446Z,25.97
2022-11-11T01:19:36.442Z,25.96
2022-11-11T01:20:06.423Z,25.96
2022-11-11T01:20:36.462Z,25.97
2022-11-11T01:21:06.684Z,25.97
2022-11-11T01:22:15.746Z,25.95
2022-11-11T01:22:45.780Z,25.96
2022-11-11T01:23:15.855Z,25.93
2022-11-11T01:23:45.787Z,25.95
2022-11-11T01:24:15.961Z,25.95
2022-11-11T01:24:46.045Z,25.92
2022-11-11T01:25:16.002Z,25.92
2022-11-11T01:25:46.174Z,25.92
2022-11-11T01:26:16.159Z,25.92
2022-11-11T01:26:46.252Z,25.93
2022-11-11T01:27:16.351Z,25.91
2022-11-11T01:27:46.293Z,25.91
2022-11-11T01:28:16.408Z,25.91
2022-11-11T01:28:46.561Z,25.92
2022-11-11T01:29:16.506Z,25.93
2022-11-11T01:29:46.695Z,25.92
2022-11-11T01:30:16.755Z,25.92
2022-11-11T01:30:46.748Z,25.92
2022-11-11T01:31:16.681Z,25.92
2022-11-11T01:31:46.784Z,25.93
2022-11-11T01:32:16.885Z,25.93
2022-11-11T01:32:46.990Z,25.95
2022-11-11T01:33:17.006Z,25.92
2022-11-11T01:33:47.133Z,25.92
2022-11-11T01:34:16.989Z,25.93
2022-11-11T01:34:47.095Z,25.92
2022-11-11T01:35:17.200Z,25.92
2022-11-11T01:35:47.297Z,25.93
2022-11-11T01:36:17.442Z,25.93
2022-11-11T01:36:47.521Z,25.95
2022-11-11T01:37:17.611Z,25.95
2022-11-11T01:37:47.758Z,25.95
2022-11-11T01:38:17.957Z,25.95
2022-11-11T01:38:48.034Z,25.92
2022-11-11T01:39:17.991Z,25.95
2022-11-11T01:39:48.173Z,25.93
2022-11-11T01:40:18.175Z,25.95
2022-11-11T01:40:48.359Z,25.93
2022-11-11T01:41:18.332Z,25.93
2022-11-11T01:41:48.442Z,25.95
2022-11-11T01:42:18.641Z,25.96
2022-11-11T01:42:48.604Z,25.95
2022-11-11T01:43:18.713Z,25.95
2022-11-11T01:43:48.954Z,25.93
2022-11-11T01:44:18.958Z,25.96
2022-11-11T01:44:49.232Z,25.96
2022-11-11T01:45:19.130Z,25.96
2022-11-11T01:45:49.195Z,25.93
2022-11-11T01:46:19.205Z,25.96
2022-11-11T01:46:49.231Z,25.96
2022-11-11T01:47:19.336Z,25.95
2022-11-11T01:48:16.716Z,25.96
2022-11-11T01:48:24.942Z,25.95
2022-11-11T01:48:49.386Z,25.93
2022-11-11T01:49:19.526Z,25.95
2022-11-11T01:49:49.504Z,25.95
2022-11-11T01:50:19.489Z,25.93
2022-11-11T01:50:49.676Z,25.93
2022-11-11T01:51:19.691Z,25.93
2022-11-11T01:51:49.657Z,25.93
2022-11-11T01:52:19.892Z,25.93
2022-11-11T01:52:49.993Z,25.95
2022-11-11T01:53:19.858Z,25.95
2022-11-11T01:53:49.964Z,25.96
2022-11-11T01:54:20.225Z,25.95
2022-11-11T01:54:50.322Z,25.93
2022-11-11T01:55:20.300Z,25.95
2022-11-11T01:55:50.434Z,25.95
2022-11-11T01:56:20.565Z,25.93
2022-11-11T01:56:50.638Z,25.93
2022-11-11T01:57:20.791Z,25.95
2022-11-11T01:57:50.703Z,25.95
2022-11-11T01:58:20.744Z,25.96
2022-11-11T01:58:50.742Z,25.95
2022-11-11T01:59:20.808Z,25.96
2022-11-11T01:59:50.745Z,25.95
2022-11-11T02:00:20.781Z,25.95
2022-11-11T02:00:50.961Z,25.95
2022-11-11T02:01:21.012Z,25.95
2022-11-11T02:01:51.078Z,25.95
2022-11-11T02:02:21.105Z,25.93
2022-11-11T02:02:51.286Z,25.95
2022-11-11T02:03:21.592Z,25.93
2022-11-11T02:03:51.170Z,25.95
2022-11-11T02:04:21.312Z,25.93
2022-11-11T02:04:51.539Z,25.95
2022-11-11T02:05:21.563Z,25.93
2022-11-11T02:05:51.617Z,25.92
2022-11-11T02:06:21.880Z,25.93
2022-11-11T02:06:51.969Z,25.92
2022-11-11T02:07:22.028Z,25.93
2022-11-11T02:07:52.156Z,25.95
2022-11-11T02:08:22.046Z,25.95
2022-11-11T02:08:52.150Z,25.95
2022-11-11T02:09:22.402Z,25.95
2022-11-11T02:09:52.527Z,25.95
2022-11-11T02:10:22.588Z,25.95
2022-11-11T02:10:52.465Z,25.95
2022-11-11T02:11:22.618Z,25.95
2022-11-11T02:11:52.685Z,25.93
2022-11-11T02:12:22.739Z,25.95
2022-11-11T02:12:52.894Z,25.93
2022-11-11T02:13:23.238Z,25.93
2022-11-11T02:13:52.902Z,25.95
2022-11-11T02:14:22.919Z,25.95
2022-11-11T02:14:53.004Z,25.96
2022-11-11T02:15:23.029Z,25.96
2022-11-11T02:15:52.989Z,25.95
2022-11-11T02:16:23.088Z,25.95
2022-11-11T02:16:53.253Z,25.96
2022-11-11T02:17:23.207Z,25.96
2022-11-11T02:17:53.319Z,25.96
2022-11-11T02:18:23.468Z,25.95
2022-11-11T02:18:53.544Z,25.96
2022-11-11T02:19:23.714Z,25.96
2022-11-11T02:19:53.859Z,25.95
2022-11-11T02:20:23.778Z,25.93
2022-11-11T02:20:53.735Z,25.96
2022-11-11T02:21:23.918Z,25.97
2022-11-11T02:21:53.874Z,25.96
2022-11-11T02:22:24.083Z,25.96
2022-11-11T02:22:54.047Z,25.96
2022-11-11T02:23:24.516Z,25.96
2022-11-11T02:23:54.237Z,25.96
2022-11-11T02:24:24.180Z,25.95
2022-11-11T02:24:54.306Z,25.96
2022-11-11T02:25:24.455Z,25.96
2022-11-11T02:25:54.380Z,25.97
2022-11-11T02:26:24.463Z,25.99
2022-11-11T02:26:58.328Z,25.96
2022-11-11T02:27:24.780Z,25.95
2022-11-11T02:27:54.798Z,25.93
2022-11-11T02:28:24.810Z,25.96
2022-11-11T02:28:54.738Z,25.97
2022-11-11T02:29:24.928Z,25.97
2022-11-11T02:29:55.023Z,25.96
2022-11-11T02:30:24.989Z,25.93
2022-11-11T02:30:55.075Z,25.96
2022-11-11T02:31:25.286Z,25.97
2022-11-11T02:31:55.291Z,25.97
2022-11-11T02:32:25.350Z,25.95
2022-11-11T02:32:55.472Z,25.93
2022-11-11T02:33:25.659Z,25.93
2022-11-11T02:33:55.524Z,25.95
2022-11-11T02:34:25.525Z,25.96
2022-11-11T02:34:55.664Z,25.96
2022-11-11T02:35:25.641Z,25.96
2022-11-11T02:35:55.711Z,25.93
2022-11-11T02:36:25.722Z,25.95
2022-11-11T02:36:55.683Z,25.95
2022-11-11T02:37:25.855Z,25.92
2022-11-11T02:37:55.819Z,25.95
2022-11-11T02:38:25.945Z,25.95
2022-11-11T02:38:55.918Z,25.92
2022-11-11T02:39:42.370Z,25.93
2022-11-11T02:40:03.640Z,25.92
2022-11-11T02:40:26.150Z,25.93
2022-11-11T02:40:56.143Z,25.95
2022-11-11T02:41:26.363Z,25.92
2022-11-11T02:41:56.415Z,25.96
2022-11-11T02:42:26.411Z,25.95
2022-11-11T02:42:56.614Z,25.93
2022-11-11T02:43:27.032Z,25.92
2022-11-11T02:43:56.692Z,25.93
2022-11-11T02:44:26.768Z,25.91
2022-11-11T02:44:56.781Z,25.92
2022-11-11T02:45:26.754Z,25.93
2022-11-11T02:45:57.038Z,25.92
2022-11-11T02:46:27.072Z,25.92
2022-11-11T02:46:56.914Z,25.93
2022-11-11T02:47:27.188Z,25.92
2022-11-11T02:47:57.200Z,25.91
2022-11-11T02:48:27.257Z,25.92
2022-11-11T02:48:57.295Z,25.91
2022-11-11T02:49:27.178Z,25.92
2022-11-11T02:49:57.288Z,25.92
2022-11-11T02:50:27.545Z,25.92
2022-11-11T02:50:57.258Z,25.92
2022-11-11T02:51:27.458Z,25.91
2022-11-11T02:51:57.465Z,25.91
2022-11-11T02:52:27.587Z,25.91
2022-11-11T02:52:57.721Z,25.92
2022-11-11T02:53:28.226Z,25.93
2022-11-11T02:53:57.789Z,25.89
2022-11-11T02:54:27.899Z,25.91
2022-11-11T02:54:57.793Z,25.91
2022-11-11T02:55:27.980Z,25.89
2022-11-11T02:55:58.073Z,25.89
2022-11-11T02:56:28.050Z,25.92
2022-11-11T02:56:58.274Z,25.91
2022-11-11T02:57:28.305Z,25.93
2022-11-11T02:57:58.459Z,25.91
2022-11-11T02:58:28.440Z,25.92
2022-11-11T02:58:58.382Z,25.89
2022-11-11T02:59:28.458Z,25.91
2022-11-11T02:59:58.610Z,25.89
2022-11-11T03:00:28.620Z,25.91
2022-11-11T03:00:58.681Z,25.91
2022-11-11T03:01:28.943Z,25.89
2022-11-11T03:01:58.855Z,25.91
2022-11-11T03:02:29.106Z,25.89
2022-11-11T03:02:58.934Z,25.91
2022-11-11T03:03:29.656Z,25.91
2022-11-11T03:03:59.203Z,25.92
2022-11-11T03:04:29.322Z,25.89
2022-11-11T03:04:59.386Z,25.88
2022-11-11T03:05:29.490Z,25.89
2022-11-11T03:05:59.481Z,25.89
2022-11-11T03:06:29.563Z,25.89
2022-11-11T03:06:59.786Z,25.91
2022-11-11T03:07:29.785Z,25.91
2022-11-11T03:07:59.823Z,25.91
2022-11-11T03:08:29.855Z,25.89
2022-11-11T03:08:59.825Z,25.88
2022-11-11T03:09:30.134Z,25.89
2022-11-11T03:10:00.332Z,25.89
2022-11-11T03:10:30.207Z,25.89
2022-11-11T03:11:00.189Z,25.92
2022-11-11T03:11:30.277Z,25.89
2022-11-11T03:12:00.380Z,25.89
2022-11-11T03:12:30.247Z,25.89
2022-11-11T03:13:00.545Z,25.89
2022-11-11T03:13:30.436Z,25.88
2022-11-11T03:14:00.562Z,25.91
2022-11-11T03:14:30.475Z,25.88
2022-11-11T03:15:00.452Z,25.88
2022-11-11T03:15:30.638Z,25.88
2022-11-11T03:16:00.687Z,25.89
2022-11-11T03:16:30.714Z,25.91
2022-11-11T03:17:00.811Z,25.88
2022-11-11T03:17:30.848Z,25.88
2022-11-11T03:18:00.859Z,25.88
2022-11-11T03:18:30.732Z,25.89
2022-11-11T03:19:00.859Z,25.89
2022-11-11T03:19:31.045Z,25.88
2022-11-11T03:20:01.245Z,25.85
2022-11-11T03:20:31.079Z,25.89
2022-11-11T03:21:01.305Z,25.89
2022-11-11T03:23:01.583Z,25.89
2022-11-11T03:23:31.657Z,25.86
2022-11-11T03:24:01.738Z,25.85
2022-11-11T03:24:31.816Z,25.86
2022-11-11T03:25:01.887Z,25.86
2022-11-11T03:25:31.960Z,25.88
2022-11-11T03:26:02.033Z,25.86
2022-11-11T03:26:32.109Z,25.88
2022-11-11T03:27:02.179Z,25.88
2022-11-11T03:27:32.255Z,25.86
2022-11-11T03:28:02.329Z,25.86
2022-11-11T03:28:32.395Z,25.85
2022-11-11T03:29:02.471Z,25.86
2022-11-11T03:29:32.547Z,25.88
2022-11-11T03:30:02.624Z,25.88
2022-11-11T03:30:32.691Z,25.85
2022-11-11T03:31:04.365Z,25.88
2022-11-11T03:31:32.797Z,25.88
2022-11-11T03:32:02.896Z,25.86
2022-11-11T03:32:33.005Z,25.85
2022-11-11T03:33:03.123Z,25.88
2022-11-11T03:33:33.230Z,25.86
2022-11-11T03:34:03.341Z,25.86
2022-11-11T03:34:33.454Z,25.88
2022-11-11T03:35:03.562Z,25.86
2022-11-11T03:35:33.679Z,25.86
2022-11-11T03:36:03.906Z,25.88
2022-11-11T03:36:33.855Z,25.86
2022-11-11T03:37:03.963Z,25.88
2022-11-11T03:37:34.073Z,25.88
2022-11-11T03:38:04.188Z,25.85
2022-11-11T03:38:34.303Z,25.88
2022-11-11T03:39:04.413Z,25.88
2022-11-11T03:39:34.527Z,25.86
2022-11-11T03:40:04.638Z,25.85
2022-11-11T03:40:34.746Z,25.88
2022-11-11T03:41:04.868Z,25.88
2022-11-11T03:41:34.981Z,25.88
2022-11-11T03:42:05.090Z,25.86
2022-11-11T03:42:35.205Z,25.85
2022-11-11T03:43:05.647Z,25.86
2022-11-11T03:43:35.406Z,25.88
2022-11-11T03:44:05.520Z,25.86
2022-11-11T03:44:35.628Z,25.88
2022-11-11T03:45:05.742Z,25.88
2022-11-11T03:45:35.851Z,25.88
2022-11-11T03:46:05.962Z,25.85
2022-11-11T03:46:36.073Z,25.89
2022-11-11T03:47:06.180Z,25.88
2022-11-11T03:47:36.293Z,25.85
2022-11-11T03:48:06.406Z,25.88
2022-11-11T03:48:36.518Z,25.86
2022-11-11T03:49:06.632Z,25.86
2022-11-11T03:49:36.748Z,25.88
2022-11-11T03:50:06.856Z,25.86
2022-11-11T03:50:37.010Z,25.88
2022-11-11T03:51:07.162Z,25.86
2022-11-11T03:51:37.048Z,25.86
2022-11-11T03:52:07.181Z,25.86
2022-11-11T03:52:37.269Z,25.86
2022-11-11T03:53:07.387Z,25.86
2022-11-11T03:53:37.382Z,25.85
2022-11-11T03:54:07.497Z,25.88
2022-11-11T03:54:37.612Z,25.86
2022-11-11T03:55:07.719Z,25.88
2022-11-11T03:55:37.832Z,25.85
2022-11-11T03:56:07.941Z,25.88
2022-11-11T03:56:38.054Z,25.86
2022-11-11T03:57:08.166Z,25.86
2022-11-11T03:57:38.274Z,25.86
2022-11-11T03:58:08.390Z,25.86
2022-11-11T03:58:38.508Z,25.86
2022-11-11T03:59:08.611Z,25.86
2022-11-11T03:59:38.729Z,25.85
2022-11-11T04:00:14.131Z,25.86
2022-11-11T04:00:38.843Z,25.85
2022-11-11T04:01:08.955Z,25.86
2022-11-11T04:01:39.173Z,25.85
2022-11-11T04:02:09.221Z,25.85
2022-11-11T04:02:39.265Z,25.86
2022-11-11T04:03:09.367Z,25.84
2022-11-11T04:03:39.477Z,25.84
2022-11-11T04:04:09.593Z,25.85
2022-11-11T04:04:39.588Z,25.85
2022-11-11T04:05:09.695Z,25.85
2022-11-11T04:05:39.835Z,25.86
2022-11-11T04:06:09.946Z,25.85
2022-11-11T04:06:39.993Z,25.85
2022-11-11T04:07:09.998Z,25.85
2022-11-11T04:07:39.973Z,25.84
2022-11-11T04:08:10.091Z,25.84
2022-11-11T04:08:40.087Z,25.85
2022-11-11T04:09:10.205Z,25.85
2022-11-11T04:09:40.320Z,25.88
2022-11-11T04:10:10.432Z,25.85
2022-11-11T04:10:40.549Z,25.86
2022-11-11T04:11:10.660Z,25.85
2022-11-11T04:11:40.777Z,25.85
2022-11-11T04:12:10.887Z,25.84
2022-11-11T04:12:40.998Z,25.85
2022-11-11T04:13:11.111Z,25.84
2022-11-11T04:13:41.223Z,25.86
2022-11-11T04:14:11.338Z,25.84
2022-11-11T04:14:41.342Z,25.82
2022-11-11T04:15:11.440Z,25.85
2022-11-11T04:15:41.556Z,25.82
2022-11-11T04:16:11.669Z,25.85
2022-11-11T04:16:41.777Z,25.85
2022-11-11T04:17:11.898Z,25.85
2022-11-11T04:17:41.931Z,25.84
2022-11-11T04:18:12.044Z,25.82
2022-11-11T04:18:42.161Z,25.84
2022-11-11T04:19:12.271Z,25.82
2022-11-11T04:19:42.385Z,25.84
2022-11-11T04:20:12.494Z,25.82
2022-11-11T04:20:42.608Z,25.84
2022-11-11T04:21:12.835Z,25.84
2022-11-11T04:21:42.784Z,25.84
2022-11-11T04:22:12.859Z,25.82
2022-11-11T04:22:42.929Z,25.84
2022-11-11T04:23:12.997Z,25.84
2022-11-11T04:23:43.073Z,25.84
2022-11-11T04:24:13.152Z,25.84
2022-11-11T04:24:43.230Z,25.82
2022-11-11T04:25:13.305Z,25.82
2022-11-11T04:25:43.373Z,25.81
2022-11-11T04:26:13.449Z,25.82
2022-11-11T04:26:43.520Z,25.82
2022-11-11T04:27:13.605Z,25.84
2022-11-11T04:27:43.678Z,25.84
2022-11-11T04:28:13.748Z,25.82
2022-11-11T04:28:43.836Z,25.84
2022-11-11T04:29:13.909Z,25.84
2022-11-11T04:29:43.979Z,25.84
2022-11-11T04:30:14.050Z,25.84
2022-11-11T04:30:44.121Z,25.82
2022-11-11T04:31:14.198Z,25.84
2022-11-11T04:31:44.266Z,25.84
2022-11-11T04:32:14.433Z,25.85
2022-11-11T04:32:44.480Z,25.84
2022-11-11T04:33:14.580Z,25.85
2022-11-11T04:33:44.695Z,25.84
2022-11-11T04:34:14.808Z,25.85
2022-11-11T04:34:44.923Z,25.84
2022-11-11T04:35:15.041Z,25.85
2022-11-11T04:35:45.149Z,25.85
2022-11-11T04:36:15.378Z,25.85
2022-11-11T04:36:45.322Z,25.84
2022-11-11T04:37:15.434Z,25.82
2022-11-11T04:37:45.547Z,25.88
2022-11-11T04:38:15.658Z,25.84
2022-11-11T04:38:45.781Z,25.86
2022-11-11T04:39:15.769Z,25.85
2022-11-11T04:39:45.887Z,25.84
2022-11-11T04:40:15.997Z,25.84
2022-11-11T04:40:46.108Z,25.84
2022-11-11T04:41:16.225Z,25.86
2022-11-11T04:42:07.056Z,25.84
2022-11-11T04:42:16.356Z,25.86
2022-11-11T04:42:46.468Z,25.88
2022-11-11T04:43:16.583Z,25.84
2022-11-11T04:43:46.700Z,25.86
2022-11-11T04:44:16.814Z,25.86
2022-11-11T04:44:46.923Z,25.88
2022-11-11T04:45:17.038Z,25.86
2022-11-11T04:45:47.147Z,25.89
2022-11-11T04:46:17.258Z,25.89
2022-11-11T04:46:47.375Z,25.86
2022-11-11T04:47:17.485Z,25.88
2022-11-11T04:47:47.599Z,25.86
2022-11-11T04:48:17.713Z,25.88
2022-11-11T04:48:47.822Z,25.88
2022-11-11T04:49:17.937Z,25.85
2022-11-11T04:49:48.047Z,25.91
2022-11-11T04:50:18.162Z,25.89
2022-11-11T04:50:48.157Z,25.91
2022-11-11T04:51:18.390Z,25.88
2022-11-11T04:51:48.345Z,25.86
2022-11-11T04:52:18.459Z,25.89
2022-11-11T04:52:48.570Z,25.88
2022-11-11T04:53:18.687Z,25.89
2022-11-11T04:53:48.806Z,25.88
2022-11-11T04:54:18.792Z,25.84
2022-11-11T04:54:48.908Z,25.84
2022-11-11T04:55:21.896Z,25.85
2022-11-11T04:55:49.128Z,25.82
2022-11-11T04:56:19.235Z,25.79
2022-11-11T04:56:49.348Z,25.85
2022-11-11T04:57:19.458Z,25.82
2022-11-11T04:57:49.571Z,25.84
2022-11-11T04:58:19.679Z,25.84
2022-11-11T04:58:49.797Z,25.82
2022-11-11T04:59:19.904Z,25.84
2022-11-11T04:59:50.017Z,25.81
2022-11-11T05:00:20.127Z,25.75
2022-11-11T05:00:50.284Z,25.74
2022-11-11T05:01:20.307Z,25.74
2022-11-11T05:01:50.276Z,25.71
2022-11-11T05:02:20.392Z,25.71
2022-11-11T05:02:50.504Z,25.75
2022-11-11T05:03:20.817Z,25.72
2022-11-11T05:03:50.705Z,25.74
2022-11-11T05:04:20.824Z,25.75
2022-11-11T05:04:50.929Z,25.78
2022-11-11T05:05:21.043Z,25.75
2022-11-11T05:05:51.154Z,25.76
2022-11-11T05:06:21.383Z,25.78
2022-11-11T05:06:52.862Z,25.76
2022-11-11T05:07:21.412Z,25.78
2022-11-11T05:07:51.389Z,25.81
2022-11-11T05:08:21.501Z,25.82
2022-11-11T05:08:51.499Z,25.81
2022-11-11T05:09:21.610Z,25.79
2022-11-11T05:09:51.738Z,25.81
2022-11-11T05:10:21.728Z,25.81
2022-11-11T05:10:51.833Z,25.84
2022-11-11T05:11:21.950Z,25.82
2022-11-11T05:11:52.065Z,25.85
2022-11-11T05:12:22.174Z,25.82
2022-11-11T05:12:52.284Z,25.86
2022-11-11T05:13:23.947Z,25.76
2022-11-11T05:13:52.470Z,25.74
2022-11-11T05:14:22.457Z,25.76
2022-11-11T05:14:52.577Z,25.78
2022-11-11T05:15:22.681Z,25.82
2022-11-11T05:15:52.789Z,25.79
2022-11-11T05:16:22.900Z,25.84
2022-11-11T05:16:53.013Z,25.81
2022-11-11T05:17:23.121Z,25.84
2022-11-11T05:17:53.235Z,25.82
2022-11-11T05:18:23.341Z,25.85
2022-11-11T05:18:53.453Z,25.86
2022-11-11T05:19:23.573Z,25.85
2022-11-11T05:19:53.689Z,25.82
2022-11-11T05:20:23.791Z,25.81
2022-11-11T05:20:53.905Z,25.82
2022-11-11T05:21:24.014Z,25.84
2022-11-11T05:21:54.227Z,25.85
2022-11-11T05:22:24.132Z,25.85
2022-11-11T05:22:54.196Z,25.84
2022-11-11T05:23:24.721Z,25.85
2022-11-11T05:23:54.272Z,25.86
2022-11-11T05:24:24.350Z,25.86
2022-11-11T05:24:54.439Z,25.85
2022-11-11T05:25:24.511Z,25.88
2022-11-11T05:25:54.580Z,25.91
2022-11-11T05:26:29.524Z,25.91
2022-11-11T05:26:54.760Z,25.88
2022-11-11T05:27:24.833Z,25.86
2022-11-11T05:27:54.901Z,25.86
2022-11-11T05:28:24.977Z,25.88
2022-11-11T05:28:55.048Z,25.88
2022-11-11T05:29:25.123Z,25.86
2022-11-11T05:29:55.199Z,25.88
2022-11-11T05:30:25.275Z,25.86
2022-11-11T05:30:55.350Z,25.89
2022-11-11T05:31:25.427Z,25.86
2022-11-11T05:31:55.517Z,25.91
2022-11-11T05:32:25.632Z,25.91
2022-11-11T05:32:55.744Z,25.91
2022-11-11T05:33:26.200Z,25.92
2022-11-11T05:33:55.920Z,25.91
2022-11-11T05:34:25.905Z,25.91
2022-11-11T05:34:55.892Z,25.91
2022-11-11T05:35:26.001Z,25.88
2022-11-11T05:35:56.114Z,25.89
2022-11-11T05:36:26.289Z,25.89
2022-11-11T05:36:56.259Z,25.89
2022-11-11T05:37:26.362Z,25.82
2022-11-11T05:37:56.312Z,25.81
2022-11-11T05:38:26.424Z,25.82
2022-11-11T05:38:56.534Z,25.82
2022-11-11T05:39:26.649Z,25.85
2022-11-11T05:39:56.762Z,25.85
2022-11-11T05:40:26.880Z,25.86
2022-11-11T05:40:56.988Z,25.86
2022-11-11T05:41:27.107Z,25.86
2022-11-11T05:41:57.214Z,25.86
2022-11-11T05:42:27.327Z,25.88
2022-11-11T05:42:57.447Z,25.88
2022-11-11T05:43:27.681Z,25.89
2022-11-11T05:43:57.669Z,25.91
2022-11-11T05:44:27.789Z,25.85
2022-11-11T05:44:57.902Z,25.82
2022-11-11T05:45:28.023Z,25.86
2022-11-11T05:45:58.147Z,25.85
2022-11-11T05:46:28.251Z,25.85
2022-11-11T05:46:58.367Z,25.86
2022-11-11T05:47:28.480Z,25.79
2022-11-11T05:47:58.597Z,25.79
2022-11-11T05:48:28.712Z,25.82
2022-11-11T05:48:58.829Z,25.84
2022-11-11T05:49:28.954Z,25.82
2022-11-11T05:49:58.943Z,25.79
2022-11-11T05:50:28.933Z,25.84
2022-11-11T05:50:59.039Z,25.82
2022-11-11T05:51:29.153Z,25.86
2022-11-11T05:51:59.281Z,25.85
2022-11-11T05:52:29.399Z,25.86
2022-11-11T05:52:59.348Z,25.85
2022-11-11T05:53:29.461Z,25.85
2022-11-11T05:53:59.572Z,25.88
2022-11-11T05:54:29.693Z,25.85
2022-11-11T05:54:59.681Z,25.88
2022-11-11T05:55:29.804Z,25.88
2022-11-11T05:55:59.798Z,25.91
2022-11-11T05:56:29.916Z,25.91
2022-11-11T05:57:00.028Z,25.89
2022-11-11T05:57:30.142Z,25.93
2022-11-11T05:58:00.252Z,25.91
2022-11-11T05:58:30.362Z,25.91
2022-11-11T05:59:00.476Z,25.92
2022-11-11T05:59:30.599Z,25.92
2022-11-11T06:00:00.710Z,25.92
2022-11-11T06:00:30.827Z,25.91
2022-11-11T06:01:00.948Z,25.88
2022-11-11T06:01:31.072Z,25.91
2022-11-11T06:02:01.234Z,25.88
2022-11-11T06:02:31.212Z,25.82
2022-11-11T06:03:01.203Z,25.86
2022-11-11T06:03:31.319Z,25.86
2022-11-11T06:04:01.455Z,25.88
2022-11-11T06:04:31.447Z,25.88
2022-11-11T06:05:01.568Z,25.86
2022-11-11T06:05:31.686Z,25.91
2022-11-11T06:06:01.676Z,25.93
2022-11-11T06:06:31.842Z,25.93
2022-11-11T06:07:01.919Z,25.96
2022-11-11T06:07:32.016Z,25.99
2022-11-11T06:08:01.968Z,26.02
2022-11-11T06:08:32.079Z,26.02
2022-11-11T06:09:02.209Z,26.03
2022-11-11T06:09:32.200Z,26.06
2022-11-11T06:10:02.318Z,26.09
2022-11-11T06:10:32.432Z,26.10
2022-11-11T06:11:02.545Z,26.10
2022-11-11T06:11:33.176Z,26.15
2022-11-11T06:12:02.782Z,26.13
2022-11-11T06:12:32.767Z,26.16
2022-11-11T06:13:02.877Z,26.17
2022-11-11T06:13:32.990Z,26.20
2022-11-11T06:14:03.133Z,26.20
2022-11-11T06:14:33.120Z,26.20
2022-11-11T06:15:03.238Z,26.23
2022-11-11T06:15:33.355Z,26.29
2022-11-11T06:16:03.468Z,26.29
2022-11-11T06:16:33.583Z,26.32
2022-11-11T06:17:03.692Z,26.32
2022-11-11T06:17:33.687Z,26.32
2022-11-11T06:18:03.800Z,26.36
2022-11-11T06:18:33.915Z,26.36
2022-11-11T06:19:04.057Z,26.39
2022-11-11T06:19:34.038Z,26.36
2022-11-11T06:20:04.158Z,26.42
2022-11-11T06:20:34.269Z,26.43
2022-11-11T06:21:04.381Z,26.40
2022-11-11T06:21:34.495Z,26.42
2022-11-11T06:22:04.575Z,26.44
2022-11-11T06:22:34.648Z,26.46
2022-11-11T06:23:04.852Z,26.47
2022-11-11T06:23:34.762Z,26.48
2022-11-11T06:24:04.855Z,26.50
2022-11-11T06:24:34.928Z,26.53
2022-11-11T06:25:05.007Z,26.55
2022-11-11T06:25:35.084Z,26.57
2022-11-11T06:26:05.159Z,26.57
2022-11-11T06:26:35.235Z,26.58
2022-11-11T06:27:05.309Z,26.60
2022-11-11T06:27:35.384Z,26.63
2022-11-11T06:28:05.467Z,26.64
2022-11-11T06:28:35.539Z,26.65
2022-11-11T06:29:05.645Z,26.64
2022-11-11T06:29:35.723Z,26.64